Time;durP1;ratioP1;P1;durP2;ratioP2;P2;SDS_P1;SDS_P2;PMS_P1;PMS_P2;Temp;Humidity;BMP_temperature;BMP_pressure;BME280_temperature;BME280_humidity;BME280_pressure;Samples;Min_cycle;Max_cycle;Signal;HPM_P1;HPM_P2
2021/01/03 00:02:07;;;;;;;59.08;31.35;;;0.00;88.60;;;;;;5034568;28;20029;-80
2021/01/03 00:04:38;;;;;;;54.42;30.20;;;0.00;88.50;;;;;;5036024;28;20083;-80
2021/01/03 00:07:04;;;;;;;54.70;30.52;;;0.00;88.60;;;;;;5052996;28;20548;-81
2021/01/03 00:09:29;;;;;;;53.70;29.88;;;0.00;88.40;;;;;;5054327;28;20071;-80
2021/01/03 00:11:56;;;;;;;46.15;27.73;;;0.00;88.20;;;;;;5055546;28;20108;-80
2021/01/03 00:14:22;;;;;;;49.47;28.13;;;0.00;88.10;;;;;;5055073;28;20033;-80
2021/01/03 00:16:52;;;;;;;58.42;32.97;;;0.00;88.10;;;;;;5054140;28;20025;-80
2021/01/03 00:19:20;;;;;;;51.80;30.95;;;0.00;88.10;;;;;;5054025;28;20474;-80
2021/01/03 00:21:46;;;;;;;48.67;29.75;;;0.00;88.00;;;;;;5054102;28;20021;-80
2021/01/03 00:24:12;;;;;;;45.45;27.90;;;0.00;88.00;;;;;;5054220;28;20027;-80
2021/01/03 00:26:38;;;;;;;44.28;26.58;;;0.00;87.90;;;;;;5054028;28;20028;-80
2021/01/03 00:29:04;;;;;;;40.78;25.17;;;0.10;87.90;;;;;;5055433;28;20370;-80
2021/01/03 00:31:29;;;;;;;43.28;26.13;;;0.00;87.90;;;;;;5053859;28;20025;-80
2021/01/03 00:33:55;;;;;;;51.88;29.73;;;0.00;87.80;;;;;;5054023;28;20166;-79
2021/01/03 00:36:21;;;;;;;44.88;27.48;;;0.00;88.00;;;;;;5053771;28;20058;-80
2021/01/03 00:38:47;;;;;;;50.65;26.52;;;0.00;88.00;;;;;;5053688;28;20071;-80
2021/01/03 00:41:13;;;;;;;53.00;28.38;;;0.00;88.00;;;;;;5053632;28;20160;-80
2021/01/03 00:43:39;;;;;;;51.83;30.77;;;0.00;87.90;;;;;;5053547;28;20425;-80
2021/01/03 00:46:05;;;;;;;50.35;29.02;;;0.00;87.90;;;;;;5053544;28;20021;-80
2021/01/03 00:48:31;;;;;;;52.22;30.02;;;0.00;87.80;;;;;;5054202;28;20025;-80
2021/01/03 00:50:56;;;;;;;54.83;30.77;;;0.00;87.80;;;;;;5053235;28;20031;-80
2021/01/03 00:53:22;;;;;;;65.97;34.47;;;0.00;87.80;;;;;;5034864;28;20017;-80
2021/01/03 00:55:49;;;;;;;62.92;34.72;;;0.00;87.70;;;;;;5032378;28;20479;-80
2021/01/03 00:58:15;;;;;;;69.90;36.55;;;0.00;87.90;;;;;;5032243;28;20021;-79
2021/01/03 01:00:41;;;;;;;73.68;38.35;;;-0.10;87.80;;;;;;5032857;28;20080;-80
2021/01/03 01:03:06;;;;;;;71.45;38.92;;;-0.10;88.00;;;;;;5032863;28;20026;-79
2021/01/03 01:05:32;;;;;;;80.28;38.88;;;-0.10;88.10;;;;;;5034012;28;20018;-79
2021/01/03 01:07:58;;;;;;;79.40;39.25;;;-0.10;88.00;;;;;;5032919;28;20029;-80
2021/01/03 01:10:27;;;;;;;77.68;39.65;;;-0.20;88.30;;;;;;5033254;28;20079;-79
2021/01/03 01:12:56;;;;;;;81.82;40.90;;;-0.20;88.40;;;;;;5017825;28;20167;-80
2021/01/03 01:15:24;;;;;;;88.82;40.35;;;-0.20;88.40;;;;;;5012920;28;20033;-80
2021/01/03 01:17:52;;;;;;;90.57;41.60;;;-0.20;88.40;;;;;;5012838;28;20116;-80
2021/01/03 01:20:20;;;;;;;98.38;41.95;;;-0.20;88.70;;;;;;5012698;28;20404;-80
2021/01/03 01:22:46;;;;;;;97.78;40.13;;;-0.20;89.20;;;;;;5012888;28;20025;-79
2021/01/03 01:25:14;;;;;;;94.38;40.85;;;-0.20;88.80;;;;;;5012678;28;20391;-79
2021/01/03 01:27:39;;;;;;;104.95;39.92;;;-0.20;89.10;;;;;;5029020;28;20495;-79
2021/01/03 01:30:09;;;;;;;114.57;41.17;;;-0.20;89.50;;;;;;5012404;28;20045;-80
2021/01/03 01:32:35;;;;;;;151.40;47.65;;;-0.10;89.60;;;;;;5012485;28;20026;-80
2021/01/03 01:35:02;;;;;;;101.15;38.45;;;-0.10;90.10;;;;;;5012767;28;20037;-79
2021/01/03 01:37:28;;;;;;;105.85;38.13;;;0.00;90.40;;;;;;5012344;28;20033;-79
2021/01/03 01:39:54;;;;;;;73.70;31.30;;;-0.10;90.40;;;;;;5028772;28;20026;-79
2021/01/03 01:42:20;;;;;;;58.95;27.70;;;0.00;90.20;;;;;;5013614;28;20028;-79
2021/01/03 01:44:46;;;;;;;69.28;31.42;;;0.00;90.10;;;;;;5035595;28;20025;-79
2021/01/03 01:47:21;;;;;;;80.95;32.60;;;0.00;90.00;;;;;;5032201;28;20398;-79
2021/01/03 01:49:48;;;;;;;70.88;30.88;;;0.10;89.90;;;;;;5032542;28;20021;-80
2021/01/03 01:52:17;;;;;;;84.45;34.53;;;0.10;90.10;;;;;;5032595;28;20033;-80
2021/01/03 01:54:50;;;;;;;112.65;42.72;;;0.10;90.50;;;;;;5033290;28;20544;-79
2021/01/03 01:57:21;;;;;;;105.47;41.20;;;0.20;91.20;;;;;;5032422;28;20049;-79
2021/01/03 01:59:52;;;;;;;95.43;37.88;;;0.30;90.60;;;;;;5032358;28;20049;-79
2021/01/03 02:02:30;;;;;;;124.80;46.92;;;0.30;90.40;;;;;;5033659;28;20032;-79
2021/01/03 02:04:58;;;;;;;126.03;46.17;;;0.30;90.50;;;;;;5032351;28;20048;-79
2021/01/03 02:07:40;;;;;;;107.60;43.33;;;0.40;90.60;;;;;;5032778;28;20035;-80
2021/01/03 02:10:27;;;;;;;170.52;66.45;;;0.50;90.80;;;;;;5032596;28;20026;-80
2021/01/03 02:13:08;;;;;;;139.88;60.92;;;0.50;92.20;;;;;;5032301;28;20538;-80
2021/01/03 02:15:34;;;;;;;143.20;60.90;;;0.60;91.70;;;;;;5033548;28;20030;-80
2021/01/03 02:18:03;;;;;;;129.50;57.35;;;0.70;92.20;;;;;;5032227;28;20505;-79
2021/01/03 02:20:43;;;;;;;85.78;41.92;;;0.80;91.90;;;;;;5032158;28;20049;-80
2021/01/03 02:23:12;;;;;;;78.07;37.28;;;1.00;91.50;;;;;;5032251;28;20022;-79
2021/01/03 02:25:38;;;;;;;96.18;42.08;;;1.00;91.30;;;;;;5032089;28;20433;-79
2021/01/03 02:28:20;;;;;;;81.47;35.88;;;1.10;91.90;;;;;;5032045;28;20029;-80
2021/01/03 02:30:52;;;;;;;82.10;37.13;;;1.20;91.20;;;;;;5032180;28;20025;-80
2021/01/03 02:33:25;;;;;;;103.53;35.05;;;1.30;91.40;;;;;;5032089;28;20053;-80
2021/01/03 02:35:58;;;;;;;88.20;33.00;;;1.30;91.20;;;;;;5032166;28;20068;-80
2021/01/03 02:38:27;;;;;;;109.15;31.98;;;1.40;91.20;;;;;;5033361;28;20025;-80
2021/01/03 02:40:53;;;;;;;85.82;27.83;;;1.50;91.40;;;;;;5032022;28;20475;-79
2021/01/03 02:43:20;;;;;;;88.60;28.92;;;1.50;90.90;;;;;;5032012;28;20030;-79
2021/01/03 02:45:46;;;;;;;89.82;29.00;;;1.50;91.20;;;;;;5048231;28;20021;-80
2021/01/03 02:48:17;;;;;;;124.55;32.72;;;1.50;91.10;;;;;;5052615;28;20021;-79
2021/01/03 02:50:43;;;;;;;161.52;37.97;;;1.50;91.40;;;;;;5051295;28;20098;-79
2021/01/03 02:53:09;;;;;;;77.63;28.23;;;1.40;91.80;;;;;;5040959;28;20113;-78
2021/01/03 02:55:35;;;;;;;76.75;26.25;;;1.40;91.30;;;;;;5031135;28;20022;-79
2021/01/03 02:58:01;;;;;;;113.00;32.00;;;1.50;91.20;;;;;;5042112;28;20167;-78
2021/01/03 03:00:32;;;;;;;71.35;27.58;;;1.50;91.20;;;;;;5051295;28;20120;-79
2021/01/03 03:02:57;;;;;;;;;;;1.50;91.20;;;;;;5051632;28;20021;-80
2021/01/03 03:05:23;;;;;;;69.13;26.27;;;1.50;91.40;;;;;;5051310;28;19908;-80
2021/01/03 03:07:50;;;;;;;70.57;28.05;;;1.50;91.30;;;;;;5051072;28;20390;-80
2021/01/03 03:10:17;;;;;;;166.23;35.75;;;1.50;91.40;;;;;;5051177;28;20040;-80
2021/01/03 03:12:48;;;;;;;196.05;42.95;;;1.50;91.20;;;;;;5051296;28;20029;-81
2021/01/03 03:15:14;;;;;;;194.45;41.40;;;1.50;91.60;;;;;;5051524;28;20036;-80
2021/01/03 03:17:40;;;;;;;97.75;31.30;;;1.50;91.70;;;;;;5051199;28;20053;-81
2021/01/03 03:20:06;;;;;;;110.22;28.50;;;1.50;91.50;;;;;;5052418;28;20057;-81
2021/01/03 03:22:32;;;;;;;316.70;43.20;;;1.50;91.40;;;;;;5056025;28;20031;-81
2021/01/03 03:24:58;;;;;;;81.65;26.65;;;1.50;91.70;;;;;;5054759;28;20021;-82
2021/01/03 03:27:23;;;;;;;124.95;29.95;;;1.50;91.40;;;;;;5055855;28;20029;-82
2021/01/03 03:29:49;;;;;;;153.82;33.63;;;1.40;91.50;;;;;;5054662;28;20029;-80
2021/01/03 03:32:15;;;;;;;128.25;30.35;;;1.40;91.50;;;;;;5036293;28;20435;-82
2021/01/03 03:34:40;;;;;;;226.20;40.72;;;1.40;91.40;;;;;;5034417;28;20120;-83
2021/01/03 03:37:06;;;;;;;79.22;28.70;;;1.30;92.00;;;;;;5040309;28;20115;-82
2021/01/03 03:39:32;;;;;;;170.70;34.47;;;1.20;91.80;;;;;;5054619;28;20055;-82
2021/01/03 03:41:59;;;;;;;112.45;28.00;;;1.30;91.60;;;;;;5054342;28;20025;-82
2021/01/03 03:44:26;;;;;;;177.43;35.60;;;1.30;91.50;;;;;;5072678;28;20104;-81
2021/01/03 03:46:54;;;;;;;413.33;56.05;;;1.30;91.70;;;;;;5057531;28;20116;-81
2021/01/03 03:49:21;;;;;;;120.38;36.58;;;1.20;92.10;;;;;;5055062;28;20017;-82
2021/01/03 03:51:51;;;;;;;363.38;60.45;;;1.20;91.70;;;;;;5054809;28;20067;-81
2021/01/03 03:54:16;;;;;;;155.25;47.10;;;1.20;91.80;;;;;;5055049;28;20473;-82
2021/01/03 03:56:42;;;;;;;114.32;41.88;;;1.20;91.90;;;;;;5054370;28;20052;-81
2021/01/03 03:59:08;;;;;;;125.60;43.30;;;1.30;91.60;;;;;;5054779;28;20025;-82
2021/01/03 04:01:38;;;;;;;248.93;53.22;;;1.30;91.60;;;;;;5054401;28;20125;-82
2021/01/03 04:04:05;;;;;;;284.33;58.35;;;1.30;91.50;;;;;;5054711;28;20049;-82
2021/01/03 04:06:31;;;;;;;162.27;48.85;;;1.30;91.80;;;;;;5054406;28;20474;-82
2021/01/03 04:08:57;;;;;;;148.27;45.90;;;1.30;91.60;;;;;;5054380;28;20035;-81
2021/01/03 04:11:22;;;;;;;134.90;46.58;;;1.40;91.40;;;;;;5053765;28;20095;-81
2021/01/03 04:13:50;;;;;;;241.23;57.85;;;1.40;91.40;;;;;;5054268;28;20482;-82
2021/01/03 04:16:16;;;;;;;147.45;50.42;;;1.40;91.40;;;;;;5055352;28;20489;-81
2021/01/03 04:18:42;;;;;;;160.50;49.58;;;1.40;91.30;;;;;;5055419;28;20024;-82
2021/01/03 04:21:10;;;;;;;124.90;45.92;;;1.50;91.20;;;;;;5054122;28;20486;-82
2021/01/03 04:23:36;;;;;;;113.93;46.20;;;1.50;91.10;;;;;;5055392;28;20029;-83
2021/01/03 04:26:02;;;;;;;136.65;45.17;;;1.50;91.10;;;;;;5055404;28;20024;-82
2021/01/03 04:28:27;;;;;;;124.00;45.65;;;1.50;91.10;;;;;;5054236;28;20454;-83
2021/01/03 04:30:53;;;;;;;324.40;59.35;;;1.50;91.20;;;;;;5053690;28;20052;-82
2021/01/03 04:33:19;;;;;;;158.52;46.08;;;1.50;91.30;;;;;;5053784;28;20107;-82
2021/01/03 04:35:50;;;;;;;110.85;39.50;;;1.40;91.30;;;;;;5053937;28;20021;-82
2021/01/03 04:38:16;;;;;;;152.38;45.75;;;1.50;91.20;;;;;;5053752;28;20029;-83
2021/01/03 04:40:42;;;;;;;95.03;35.13;;;1.50;91.30;;;;;;5053783;28;20471;-83
2021/01/03 04:43:15;;;;;;;69.93;29.33;;;1.50;91.30;;;;;;5053725;28;20017;-83
2021/01/03 04:45:42;;;;;;;61.85;26.55;;;1.50;91.20;;;;;;5053600;28;20079;-83
2021/01/03 04:48:23;;;;;;;50.42;23.27;;;1.50;91.20;;;;;;5053340;28;20025;-83
2021/01/03 04:50:49;;;;;;;;;;;1.50;91.10;;;;;;5045348;28;20033;-82
2021/01/03 04:53:26;;;;;;;56.03;24.95;;;1.50;91.20;;;;;;5049720;28;19928;-83
2021/01/03 04:56:15;;;;;;;49.58;20.38;;;1.40;91.10;;;;;;5032932;28;20073;-82
2021/01/03 04:59:05;;;;;;;62.30;20.88;;;1.40;91.10;;;;;;5025830;28;20498;-82
2021/01/03 05:02:08;;;;;;;34.93;18.13;;;1.40;91.10;;;;;;5033063;28;20696;-83
2021/01/03 05:05:02;;;;;;;40.22;17.50;;;1.40;91.00;;;;;;5033059;28;20025;-82
2021/01/03 05:07:31;;;;;;;44.45;17.55;;;1.40;91.10;;;;;;5032666;28;20036;-83
2021/01/03 05:10:21;;;;;;;60.08;19.10;;;1.30;90.90;;;;;;5033976;28;20430;-82
2021/01/03 05:12:47;;;;;;;34.88;15.00;;;1.20;91.10;;;;;;5052738;28;20055;-82
2021/01/03 05:15:18;;;;;;;27.50;14.43;;;1.20;91.10;;;;;;5052460;28;20061;-82
2021/01/03 05:17:43;;;;;;;41.42;17.30;;;1.10;91.10;;;;;;5052987;28;20036;-83
2021/01/03 05:20:10;;;;;;;41.50;18.23;;;1.10;91.10;;;;;;5052997;28;20102;-83
2021/01/03 05:22:40;;;;;;;31.67;16.70;;;1.20;91.10;;;;;;5052703;28;20028;-82
2021/01/03 05:25:09;;;;;;;46.97;17.98;;;1.20;91.10;;;;;;5052535;28;20474;-82
2021/01/03 05:27:35;;;;;;;62.83;20.55;;;1.10;91.10;;;;;;5052503;28;20032;-83
2021/01/03 05:30:25;;;;;;;49.88;17.48;;;1.00;91.10;;;;;;5052012;28;20152;-82
2021/01/03 05:32:52;;;;;;;53.85;16.88;;;1.10;91.00;;;;;;5059725;28;20028;-83
2021/01/03 05:35:27;;;;;;;36.00;16.60;;;1.00;91.10;;;;;;5067561;28;20119;-82
2021/01/03 05:37:55;;;;;;;33.13;15.05;;;1.00;91.10;;;;;;5052233;28;20628;-82
2021/01/03 05:40:44;;;;;;;57.45;18.25;;;1.00;91.10;;;;;;5052143;28;20021;-82
2021/01/03 05:43:15;;;;;;;57.33;17.05;;;1.00;91.00;;;;;;5051630;28;20135;-82
2021/01/03 05:45:57;;;;;;;48.10;15.50;;;1.00;91.00;;;;;;5052116;28;20028;-83
2021/01/03 05:48:26;;;;;;;86.57;20.48;;;1.00;91.00;;;;;;5052404;28;20028;-82
2021/01/03 05:50:52;;;;;;;67.43;19.70;;;0.80;91.20;;;;;;5045522;28;20164;-82
2021/01/03 05:53:27;;;;;;;53.88;17.52;;;0.70;91.40;;;;;;5032799;28;20489;-82
2021/01/03 05:56:02;;;;;;;59.45;19.23;;;0.80;91.40;;;;;;5032402;28;20049;-82
2021/01/03 05:58:36;;;;;;;80.43;21.80;;;0.80;91.40;;;;;;5033668;28;20033;-82
2021/01/03 06:01:21;;;;;;;41.47;16.52;;;0.70;91.50;;;;;;5032544;28;20025;-83
2021/01/03 06:04:08;;;;;;;37.75;15.77;;;0.70;91.40;;;;;;5033751;28;20056;-83
2021/01/03 06:06:34;;;;;;;51.42;15.85;;;0.70;91.40;;;;;;5012668;28;20022;-82
2021/01/03 06:09:00;;;;;;;39.95;15.73;;;0.60;91.30;;;;;;5012763;28;20365;-83
2021/01/03 06:11:25;;;;;;;41.05;15.90;;;0.60;91.20;;;;;;5012772;28;20061;-82
2021/01/03 06:14:00;;;;;;;39.70;15.00;;;0.60;91.30;;;;;;5012615;28;20030;-83
2021/01/03 06:16:31;;;;;;;52.03;16.45;;;0.70;91.30;;;;;;5039963;28;20116;-83
2021/01/03 06:19:26;;;;;;;66.78;18.85;;;0.60;91.30;;;;;;5052314;28;20017;-82
2021/01/03 06:21:53;;;;;;;52.33;17.33;;;0.60;91.30;;;;;;5053560;28;20032;-83
2021/01/03 06:24:25;;;;;;;56.47;18.33;;;0.60;91.50;;;;;;5052314;28;20021;-83
2021/01/03 06:27:03;;;;;;;38.05;15.80;;;0.60;91.60;;;;;;5053517;28;20429;-83
2021/01/03 06:29:59;;;;;;;76.88;21.85;;;0.60;91.50;;;;;;5052176;28;20482;-82
2021/01/03 06:32:44;;;;;;;57.63;21.10;;;0.60;91.60;;;;;;5052106;28;20531;-82
2021/01/03 06:35:25;;;;;;;49.72;20.00;;;0.60;91.60;;;;;;5052046;28;20044;-83
2021/01/03 06:38:13;;;;;;;53.92;19.15;;;0.60;91.60;;;;;;5052272;28;20029;-82
2021/01/03 06:40:46;;;;;;;46.15;18.17;;;0.60;91.80;;;;;;5052101;28;20025;-83
2021/01/03 06:43:44;;;;;;;47.10;19.10;;;0.70;91.50;;;;;;5052136;28;20025;-83
2021/01/03 06:46:19;;;;;;;49.00;21.83;;;0.70;91.50;;;;;;5053293;28;20029;-82
2021/01/03 06:49:10;;;;;;;70.15;28.20;;;0.70;91.50;;;;;;5052756;28;20354;-82
2021/01/03 06:51:57;;;;;;;73.05;29.42;;;0.70;91.60;;;;;;5051975;28;20112;-82
2021/01/03 06:54:47;;;;;;;59.70;27.92;;;0.70;91.50;;;;;;5053211;28;20024;-82
2021/01/03 06:57:42;;;;;;;73.15;31.23;;;0.80;91.50;;;;;;5055584;28;20049;-82
2021/01/03 07:00:14;;;;;;;61.08;28.67;;;0.90;91.40;;;;;;5056974;28;20119;-82
2021/01/03 07:02:58;;;;;;;44.75;22.40;;;0.90;91.50;;;;;;5047354;28;20024;-82
2021/01/03 07:05:24;;;;;;;46.47;21.98;;;1.00;91.40;;;;;;5037102;28;20068;-83
2021/01/03 07:08:04;;;;;;;54.25;23.88;;;0.90;91.40;;;;;;5035698;28;20029;-83
2021/01/03 07:10:39;;;;;;;45.58;19.88;;;0.90;91.40;;;;;;5036859;28;20075;-82
2021/01/03 07:13:30;;;;;;;42.05;20.33;;;0.90;91.40;;;;;;5035753;28;20029;-83
2021/01/03 07:15:58;;;;;;;42.28;19.80;;;0.90;91.30;;;;;;5035455;28;20033;-82
2021/01/03 07:18:44;;;;;;;37.58;18.88;;;0.90;91.40;;;;;;5036757;28;20033;-83
2021/01/03 07:21:25;;;;;;;33.53;17.55;;;0.90;91.40;;;;;;5036537;28;20121;-82
2021/01/03 07:24:15;;;;;;;38.92;17.42;;;1.00;91.30;;;;;;5056290;28;20033;-82
2021/01/03 07:26:41;;;;;;;34.40;18.75;;;1.10;91.30;;;;;;5035147;28;20032;-82
2021/01/03 07:29:17;;;;;;;39.33;18.27;;;1.10;91.30;;;;;;5035311;28;20030;-83
2021/01/03 07:32:04;;;;;;;49.13;21.35;;;1.20;91.20;;;;;;5035114;28;20041;-82
2021/01/03 07:34:34;;;;;;;42.83;18.85;;;1.20;91.20;;;;;;5035185;28;20033;-82
2021/01/03 07:37:12;;;;;;;50.97;22.15;;;1.20;91.10;;;;;;5034987;28;20037;-82
2021/01/03 07:40:06;;;;;;;49.03;20.98;;;1.20;91.20;;;;;;5035034;28;20455;-82
2021/01/03 07:42:54;;;;;;;40.40;18.02;;;1.20;91.10;;;;;;5035799;28;20041;-82
2021/01/03 07:45:39;;;;;;;39.08;17.33;;;1.30;90.90;;;;;;5029034;28;20033;-84
2021/01/03 07:48:33;;;;;;;39.92;17.65;;;1.30;90.80;;;;;;5016023;28;20057;-82
2021/01/03 07:50:59;;;;;;;30.88;16.60;;;1.30;90.50;;;;;;5014676;28;20029;-82
2021/01/03 07:53:34;;;;;;;26.33;15.18;;;1.30;90.40;;;;;;5014888;28;20529;-82
2021/01/03 07:56:27;;;;;;;24.70;14.40;;;1.20;90.40;;;;;;5015672;28;20479;-81
2021/01/03 07:58:58;;;;;;;29.13;16.77;;;1.20;90.60;;;;;;5015677;28;20472;-82
2021/01/03 08:01:29;;;;;;;26.10;16.77;;;1.10;90.50;;;;;;5014234;28;20079;-82
2021/01/03 08:03:55;;;;;;;32.97;18.67;;;1.10;90.50;;;;;;5020952;28;20049;-82
2021/01/03 08:06:21;;;;;;;44.35;21.58;;;1.10;90.40;;;;;;5054909;28;20053;-82
2021/01/03 08:08:55;;;;;;;24.38;15.57;;;1.10;90.40;;;;;;5054010;28;20478;-83
2021/01/03 08:11:37;;;;;;;28.60;16.45;;;1.10;90.40;;;;;;5053829;28;20032;-82
2021/01/03 08:14:10;;;;;;;25.60;15.57;;;1.10;90.30;;;;;;5055307;28;20467;-82
2021/01/03 08:16:38;;;;;;;27.10;16.33;;;1.10;90.40;;;;;;5054865;28;20036;-82
2021/01/03 08:19:07;;;;;;;32.30;18.98;;;1.10;90.40;;;;;;5053784;28;20040;-82
2021/01/03 08:21:42;;;;;;;32.10;18.92;;;1.20;90.50;;;;;;5053705;28;20056;-84
2021/01/03 08:24:14;;;;;;;30.42;17.77;;;1.20;90.20;;;;;;5043848;28;20048;-83
2021/01/03 08:26:50;;;;;;;32.13;19.52;;;1.30;90.40;;;;;;5033643;28;20030;-82
2021/01/03 08:29:45;;;;;;;32.92;18.95;;;1.40;90.30;;;;;;5033566;28;20030;-82
2021/01/03 08:32:22;;;;;;;35.65;21.45;;;1.40;90.10;;;;;;5031575;28;20033;-82
2021/01/03 08:34:48;;;;;;;36.10;20.33;;;1.50;90.10;;;;;;5033303;28;20764;-82
2021/01/03 08:37:16;;;;;;;34.90;21.00;;;1.50;90.10;;;;;;5033376;28;20033;-82
2021/01/03 08:39:42;;;;;;;32.45;19.67;;;1.60;89.80;;;;;;5034638;28;20471;-82
2021/01/03 08:42:15;;;;;;;32.65;19.98;;;1.50;89.30;;;;;;5031351;28;20049;-82
2021/01/03 08:44:49;;;;;;;33.47;20.42;;;1.50;89.90;;;;;;5034522;28;20017;-82
2021/01/03 08:47:34;;;;;;;38.67;23.67;;;1.50;89.60;;;;;;5033379;28;20029;-82
2021/01/03 08:50:17;;;;;;;37.42;22.65;;;1.50;90.10;;;;;;5033600;28;20036;-82
2021/01/03 08:52:52;;;;;;;37.45;22.70;;;1.60;90.30;;;;;;5035115;28;20033;-82
2021/01/03 08:55:19;;;;;;;34.65;21.95;;;1.70;90.30;;;;;;5047374;28;20029;-82
2021/01/03 08:57:54;;;;;;;38.95;24.65;;;1.80;90.00;;;;;;5053082;28;20474;-82
2021/01/03 09:00:23;;;;;;;42.33;26.20;;;1.80;89.60;;;;;;5053607;28;20053;-82
2021/01/03 09:02:55;;;;;;;38.00;22.95;;;1.90;89.40;;;;;;5052265;28;20028;-82
2021/01/03 09:05:24;;;;;;;38.75;23.33;;;1.90;89.90;;;;;;5053437;28;20036;-82
2021/01/03 09:07:52;;;;;;;40.13;23.60;;;1.90;89.80;;;;;;5052362;28;20025;-82
2021/01/03 09:10:25;;;;;;;34.30;21.75;;;2.00;89.40;;;;;;5050536;28;20529;-82
2021/01/03 09:13:03;;;;;;;38.15;23.60;;;2.00;89.30;;;;;;5044753;28;20029;-82
2021/01/03 09:15:32;;;;;;;38.63;23.45;;;2.00;88.70;;;;;;5030427;28;20038;-83
2021/01/03 09:18:23;;;;;;;37.75;23.20;;;2.00;89.20;;;;;;5045775;28;20033;-83
2021/01/03 09:20:55;;;;;;;38.75;23.20;;;2.00;88.70;;;;;;5034601;28;20025;-83
2021/01/03 09:23:25;;;;;;;44.10;26.58;;;2.00;88.90;;;;;;5026760;28;20021;-83
2021/01/03 09:25:56;;;;;;;48.40;29.98;;;2.00;88.90;;;;;;5034437;28;20009;-83
2021/01/03 09:28:28;;;;;;;47.72;28.55;;;1.90;88.80;;;;;;5033196;28;20032;-83
2021/01/03 09:31:16;;;;;;;49.42;29.63;;;1.90;89.00;;;;;;5032962;28;20029;-83
2021/01/03 09:33:48;;;;;;;50.28;28.65;;;1.90;88.70;;;;;;5012768;28;20040;-83
2021/01/03 09:36:38;;;;;;;56.83;32.08;;;2.00;89.00;;;;;;5013010;28;20501;-82
2021/01/03 09:39:31;;;;;;;57.45;32.97;;;2.00;89.10;;;;;;5030062;28;20025;-83
2021/01/03 09:42:31;;;;;;;54.72;32.88;;;1.90;89.00;;;;;;5052615;28;20033;-83
2021/01/03 09:45:11;;;;;;;52.17;31.92;;;2.00;89.20;;;;;;5039764;28;20047;-83
2021/01/03 09:47:42;;;;;;;56.10;32.63;;;2.10;89.10;;;;;;5050328;28;20056;-83
2021/01/03 09:50:28;;;;;;;58.65;34.03;;;2.20;88.60;;;;;;5051766;28;20032;-83
2021/01/03 09:53:20;;;;;;;55.40;32.88;;;2.20;88.70;;;;;;5051530;28;20119;-83
2021/01/03 09:56:01;;;;;;;67.40;40.10;;;2.30;88.00;;;;;;5046804;28;20044;-83
2021/01/03 09:58:42;;;;;;;64.13;37.03;;;2.20;88.20;;;;;;5040704;28;20060;-83
2021/01/03 10:01:21;;;;;;;;;;;2.30;88.30;;;;;;5032203;28;20108;-83
2021/01/03 10:03:47;;;;;;;58.85;35.05;;;2.30;88.00;;;;;;5033178;28;19909;-82
2021/01/03 10:06:23;;;;;;;59.05;34.33;;;2.40;88.00;;;;;;5033341;28;20092;-82
2021/01/03 10:09:11;;;;;;;59.17;35.10;;;2.40;87.90;;;;;;5051701;28;20021;-82
2021/01/03 10:11:38;;;;;;;52.25;31.92;;;2.50;88.00;;;;;;5051587;28;20053;-83
2021/01/03 10:14:07;;;;;;;57.83;33.92;;;2.60;88.10;;;;;;5048001;28;20028;-84
2021/01/03 10:16:35;;;;;;;55.67;32.83;;;2.50;87.00;;;;;;5047549;28;20379;-83
2021/01/03 10:19:16;;;;;;;53.58;33.20;;;2.50;87.40;;;;;;5013699;28;20077;-83
2021/01/03 10:21:43;;;;;;;47.85;28.45;;;2.50;88.10;;;;;;5018680;28;20018;-83
2021/01/03 10:24:25;;;;;;;47.47;29.90;;;2.60;87.70;;;;;;5037378;28;20049;-83
2021/01/03 10:27:03;;;;;;;50.55;30.48;;;2.60;87.00;;;;;;5041409;28;20459;-83
2021/01/03 10:29:29;;;;;;;51.40;29.80;;;2.40;86.90;;;;;;5040187;28;20254;-83
2021/01/03 10:31:55;;;;;;;49.28;28.80;;;2.30;87.50;;;;;;5035421;28;20026;-82
2021/01/03 10:34:21;;;;;;;47.58;28.17;;;2.40;87.90;;;;;;5033365;28;20459;-83
2021/01/03 10:36:47;;;;;;;47.63;29.67;;;2.40;87.90;;;;;;5028425;28;20032;-84
2021/01/03 10:39:15;;;;;;;51.60;31.02;;;2.40;87.70;;;;;;5035350;28;20029;-83
2021/01/03 10:41:42;;;;;;;50.60;30.67;;;2.30;87.80;;;;;;5030106;28;20129;-84
2021/01/03 10:44:10;;;;;;;51.97;28.13;;;2.30;87.50;;;;;;5034857;28;20140;-83
2021/01/03 10:46:37;;;;;;;54.67;31.17;;;2.30;88.10;;;;;;5042554;28;20041;-83
2021/01/03 10:49:04;;;;;;;42.97;25.92;;;2.20;88.10;;;;;;5029329;28;20395;-84
2021/01/03 10:51:38;;;;;;;46.83;29.13;;;2.30;88.10;;;;;;5017336;28;20551;-83
2021/01/03 10:54:06;;;;;;;54.03;31.23;;;2.30;87.50;;;;;;5018059;28;20124;-83
2021/01/03 10:56:33;;;;;;;45.80;27.48;;;2.30;88.00;;;;;;5035249;28;20056;-83
2021/01/03 10:58:58;;;;;;;43.05;28.08;;;2.30;88.80;;;;;;5036918;28;20095;-83
2021/01/03 11:01:24;;;;;;;44.65;28.13;;;2.30;88.00;;;;;;5037957;28;20017;-83
2021/01/03 11:03:51;;;;;;;48.08;28.55;;;2.30;87.50;;;;;;5052989;28;20052;-84
2021/01/03 11:06:18;;;;;;;43.42;26.92;;;2.30;88.00;;;;;;5035589;28;20022;-83
2021/01/03 11:08:44;;;;;;;42.95;25.25;;;2.30;88.00;;;;;;5035705;28;20034;-83
2021/01/03 11:11:09;;;;;;;41.25;26.48;;;2.10;87.90;;;;;;5035288;28;20497;-83
2021/01/03 11:13:41;;;;;;;40.05;24.55;;;2.00;88.40;;;;;;5034724;28;20026;-83
2021/01/03 11:16:07;;;;;;;34.58;21.92;;;2.00;88.40;;;;;;5042004;28;20025;-84
2021/01/03 11:18:33;;;;;;;36.75;23.10;;;2.10;88.70;;;;;;5035436;28;20032;-84
2021/01/03 11:20:59;;;;;;;34.88;22.30;;;2.10;88.40;;;;;;5035468;28;20025;-83
2021/01/03 11:23:25;;;;;;;33.78;21.15;;;2.10;88.40;;;;;;5031804;28;20051;-84
2021/01/03 11:25:51;;;;;;;35.00;23.02;;;2.10;88.20;;;;;;5033103;28;20438;-84
2021/01/03 11:28:16;;;;;;;34.75;22.15;;;2.10;88.00;;;;;;5047648;28;20493;-83
2021/01/03 11:30:42;;;;;;;33.38;21.55;;;2.00;88.40;;;;;;5028329;28;20029;-83
2021/01/03 11:33:08;;;;;;;35.10;22.30;;;2.10;88.60;;;;;;5034203;28;20037;-82
2021/01/03 11:35:34;;;;;;;39.17;24.27;;;2.00;88.50;;;;;;5034760;28;20034;-83
2021/01/03 11:38:00;;;;;;;37.00;23.85;;;2.00;88.40;;;;;;5016730;28;20033;-82
2021/01/03 11:40:26;;;;;;;40.63;23.98;;;2.00;89.00;;;;;;5036729;28;20375;-83
2021/01/03 11:42:51;;;;;;;39.65;23.73;;;2.10;89.30;;;;;;5042366;28;20029;-82
2021/01/03 11:45:20;;;;;;;36.35;22.88;;;2.10;88.90;;;;;;5039440;28;20113;-83
2021/01/03 11:47:46;;;;;;;35.25;21.00;;;2.20;88.60;;;;;;5033215;28;20017;-82
2021/01/03 11:50:15;;;;;;;31.58;19.67;;;2.30;88.50;;;;;;5024668;28;20034;-82
2021/01/03 11:52:41;;;;;;;34.75;22.13;;;2.20;88.10;;;;;;5030886;28;20038;-82
2021/01/03 11:55:09;;;;;;;33.08;20.35;;;2.20;88.40;;;;;;5033108;28;20418;-88
2021/01/03 11:57:35;;;;;;;34.47;21.45;;;2.30;88.40;;;;;;5034187;28;20057;-89
2021/01/03 12:00:03;;;;;;;33.58;21.02;;;2.40;88.10;;;;;;5034606;28;20018;-88
2021/01/03 12:02:29;;;;;;;30.95;20.63;;;2.40;87.80;;;;;;5047258;28;20026;-89
2021/01/03 12:04:55;;;;;;;31.63;20.30;;;2.50;87.50;;;;;;5049732;28;20021;-86
2021/01/03 12:07:21;;;;;;;36.42;23.67;;;2.50;87.50;;;;;;5036996;28;20498;-89
2021/01/03 12:09:48;;;;;;;32.70;20.27;;;2.50;87.40;;;;;;5035974;28;20029;-89
2021/01/03 12:12:20;;;;;;;35.22;22.05;;;2.50;87.40;;;;;;5035987;28;20447;-88
2021/01/03 12:14:46;;;;;;;46.75;27.00;;;2.50;86.80;;;;;;5034372;28;20032;-87
2021/01/03 12:17:17;;;;;;;32.80;21.10;;;2.50;87.00;;;;;;5034469;28;20029;-87
2021/01/03 12:19:47;;;;;;;37.15;21.23;;;2.50;86.80;;;;;;5039207;28;20017;-86
2021/01/03 12:22:13;;;;;;;33.67;21.00;;;2.40;86.40;;;;;;5055371;28;20475;-86
2021/01/03 12:24:39;;;;;;;33.05;20.58;;;2.40;86.70;;;;;;5054620;28;20025;-81
2021/01/03 12:27:09;;;;;;;34.53;21.00;;;2.40;87.00;;;;;;5053658;28;20471;-81
2021/01/03 12:29:35;;;;;;;32.65;20.58;;;2.40;87.00;;;;;;5053017;28;20024;-82
2021/01/03 12:32:05;;;;;;;33.30;21.58;;;2.30;86.90;;;;;;5053349;28;20047;-81
2021/01/03 12:34:30;;;;;;;32.13;18.80;;;2.30;87.20;;;;;;5053355;28;20032;-82
2021/01/03 12:37:11;;;;;;;28.38;18.27;;;2.30;87.00;;;;;;5053084;28;20029;-81
2021/01/03 12:39:39;;;;;;;33.25;21.73;;;2.30;87.10;;;;;;5053392;28;20021;-81
2021/01/03 12:42:05;;;;;;;35.00;19.33;;;2.20;86.80;;;;;;5053127;28;20056;-82
2021/01/03 12:44:31;;;;;;;27.35;18.02;;;2.20;86.90;;;;;;5052991;28;20396;-81
2021/01/03 12:47:01;;;;;;;25.05;16.77;;;2.30;87.10;;;;;;5054474;28;20083;-81
2021/01/03 12:49:28;;;;;;;46.00;21.97;;;2.30;87.10;;;;;;5053805;28;20451;-81
2021/01/03 12:51:53;;;;;;;35.33;22.50;;;2.30;87.00;;;;;;5062070;28;20046;-82
2021/01/03 12:54:21;;;;;;;37.25;19.83;;;2.20;87.30;;;;;;5064190;28;20464;-82
2021/01/03 12:56:47;;;;;;;30.73;18.17;;;2.20;87.40;;;;;;5054483;28;20057;-82
2021/01/03 12:59:13;;;;;;;31.90;18.95;;;2.20;87.30;;;;;;5053520;28;20025;-82